Time;durP1;ratioP1;P1;durP2;ratioP2;P2;SDS_P1;SDS_P2;PMS_P1;PMS_P2;Temp;Humidity;BMP_temperature;BMP_pressure;BME280_temperature;BME280_humidity;BME280_pressure;Samples;Min_cycle;Max_cycle;Signal;HPM_P1;HPM_P2
2022/01/22 00:00:13;;;;;;;0.50;0.50;;;5.70;99.90;;;;;;5134368;28;20039;-79
2022/01/22 00:02:39;;;;;;;0.60;0.60;;;5.70;99.90;;;;;;5134189;28;20276;-79
2022/01/22 00:05:07;;;;;;;0.50;0.50;;;5.70;99.90;;;;;;5118687;27;20514;-79
2022/01/22 00:07:33;;;;;;;0.80;0.80;;;5.70;99.90;;;;;;5137877;27;20550;-79
2022/01/22 00:10:03;;;;;;;0.50;0.50;;;5.80;99.90;;;;;;5137671;27;20130;-79
2022/01/22 00:15:05;;;;;;;0.50;0.50;;;5.80;99.90;;;;;;5137862;27;20117;-79
2022/01/22 00:17:31;;;;;;;0.80;0.80;;;5.80;99.90;;;;;;5137761;27;20039;-78
2022/01/22 00:19:57;;;;;;;0.50;0.50;;;6.00;99.90;;;;;;5119881;27;20051;-79
2022/01/22 00:22:26;;;;;;;0.50;0.50;;;5.80;99.90;;;;;;5137789;27;20043;-79
2022/01/22 00:24:56;;;;;;;0.50;0.50;;;5.80;99.90;;;;;;5119360;27;20039;-79
2022/01/22 00:27:22;;;;;;;0.50;0.50;;;5.80;99.90;;;;;;5137662;27;20047;-79
2022/01/22 00:29:48;;;;;;;0.50;0.50;;;6.50;99.90;;;;;;5137523;27;20043;-79
2022/01/22 00:32:13;;;;;;;0.50;0.50;;;5.80;99.90;;;;;;5137596;27;20435;-79
2022/01/22 00:34:39;;;;;;;0.50;0.50;;;5.80;99.90;;;;;;5137486;27;20387;-78
2022/01/22 00:37:04;;;;;;;0.52;0.52;;;5.80;99.90;;;;;;5137833;27;20047;-78
2022/01/22 00:39:30;;;;;;;0.50;0.50;;;5.90;99.90;;;;;;5137163;27;20372;-78
2022/01/22 00:41:56;;;;;;;0.60;0.60;;;5.90;99.90;;;;;;5137523;27;20050;-78
2022/01/22 00:44:22;;;;;;;0.70;0.70;;;5.90;99.90;;;;;;5137174;27;20391;-78
2022/01/22 00:46:48;;;;;;;0.50;0.50;;;6.00;99.90;;;;;;5137572;27;20039;-78
2022/01/22 00:49:13;;;;;;;0.50;0.50;;;5.90;99.90;;;;;;5137383;27;20051;-78
2022/01/22 00:51:39;;;;;;;0.60;0.60;;;5.90;99.90;;;;;;5137452;27;20043;-78
2022/01/22 00:54:05;;;;;;;0.50;0.50;;;5.90;99.90;;;;;;5137531;27;20489;-78
2022/01/22 00:56:30;;;;;;;0.60;0.60;;;5.90;99.90;;;;;;5137485;27;20042;-77
2022/01/22 00:58:56;;;;;;;0.50;0.50;;;5.90;99.90;;;;;;5137262;27;20080;-77
2022/01/22 01:01:22;;;;;;;0.50;0.50;;;5.90;99.90;;;;;;5137142;27;20437;-78
2022/01/22 01:03:47;;;;;;;0.57;0.57;;;5.90;99.90;;;;;;5137656;27;20039;-78
2022/01/22 01:06:13;;;;;;;0.50;0.50;;;5.90;99.90;;;;;;5137725;27;20050;-78
2022/01/22 01:08:43;;;;;;;0.88;0.88;;;5.90;99.90;;;;;;5119345;27;20043;-77
2022/01/22 01:11:12;;;;;;;0.60;0.60;;;5.90;99.90;;;;;;5119025;27;20043;-77
2022/01/22 01:13:43;;;;;;;0.77;0.60;;;5.90;99.90;;;;;;5136807;27;20085;-78
2022/01/22 01:16:22;;;;;;;0.50;0.50;;;5.90;99.90;;;;;;5136708;27;20039;-78
2022/01/22 01:32:57;;;;;;;0.98;0.93;;;6.00;99.90;;;;;;5136850;27;20130;-79
2022/01/22 01:35:25;;;;;;;0.50;0.50;;;6.00;99.90;;;;;;5136720;27;20054;-79
2022/01/22 01:37:52;;;;;;;0.50;0.50;;;6.00;99.90;;;;;;5136630;27;20467;-79
2022/01/22 01:40:23;;;;;;;0.60;0.60;;;6.00;99.90;;;;;;5136654;27;20138;-79
2022/01/22 01:43:03;;;;;;;0.50;0.50;;;6.00;99.90;;;;;;5136365;27;20471;-78
2022/01/22 01:45:28;;;;;;;0.50;0.50;;;6.00;99.90;;;;;;5136714;27;20043;-79
2022/01/22 01:47:56;;;;;;;0.52;0.52;;;6.00;99.90;;;;;;5136330;27;20493;-78
2022/01/22 01:50:22;;;;;;;0.60;0.60;;;6.00;99.90;;;;;;5136415;27;20053;-79
2022/01/22 01:53:05;;;;;;;0.50;0.50;;;6.10;99.90;;;;;;5136348;27;20050;-79
2022/01/22 01:58:17;;;;;;;0.50;0.50;;;6.10;99.90;;;;;;5136532;27;20047;-79
2022/01/22 02:00:43;;;;;;;0.50;0.50;;;6.10;99.90;;;;;;5118119;27;20043;-79
2022/01/22 02:03:11;;;;;;;0.50;0.50;;;6.10;99.90;;;;;;5136076;27;20064;-79
2022/01/22 02:05:38;;;;;;;0.50;0.50;;;6.10;99.90;;;;;;5136167;27;20306;-79
2022/01/22 02:08:04;;;;;;;4.68;4.22;;;6.10;99.90;;;;;;5136042;27;20044;-79
2022/01/22 02:10:31;;;;;;;0.50;0.50;;;6.10;99.90;;;;;;5136019;27;20039;-79
2022/01/22 02:23:56;;;;;;;0.50;0.50;;;6.10;99.90;;;;;;5135690;27;20047;-79
2022/01/22 02:26:22;;;;;;;0.40;0.40;;;6.20;99.90;;;;;;5135935;27;20042;-79
2022/01/22 02:28:50;;;;;;;0.50;0.50;;;6.20;99.90;;;;;;5134697;27;20043;-79
2022/01/22 02:31:40;;;;;;;0.50;0.50;;;6.20;99.90;;;;;;5135544;27;20043;-79
2022/01/22 02:34:28;;;;;;;0.50;0.50;;;6.20;99.90;;;;;;5136200;27;20046;-79
2022/01/22 02:37:05;;;;;;;0.50;0.50;;;6.20;99.90;;;;;;5135693;27;20111;-79
2022/01/22 02:39:42;;;;;;;0.50;0.50;;;6.20;99.90;;;;;;5135374;27;20061;-79
2022/01/22 02:42:08;;;;;;;0.50;0.50;;;6.20;99.90;;;;;;5135764;27;20088;-78
2022/01/22 02:44:36;;;;;;;0.50;0.50;;;6.20;99.90;;;;;;5135429;27;20043;-79
2022/01/22 02:47:05;;;;;;;0.50;0.50;;;6.20;99.90;;;;;;5135374;27;20079;-79
2022/01/22 02:49:31;;;;;;;0.50;0.50;;;6.20;99.90;;;;;;5135646;27;20479;-79
2022/01/22 02:52:08;;;;;;;0.75;0.60;;;6.20;99.90;;;;;;5135103;27;20090;-79
2022/01/22 02:54:35;;;;;;;0.50;0.50;;;6.20;99.90;;;;;;5135320;27;20046;-79
2022/01/22 02:57:00;;;;;;;;;;;6.30;99.90;;;;;;5135932;27;20077;-78
2022/01/22 02:59:26;;;;;;;0.47;0.47;;;6.30;99.90;;;;;;5135271;27;19920;-79
2022/01/22 03:01:52;;;;;;;0.50;0.50;;;6.30;99.90;;;;;;5135228;27;20122;-77
2022/01/22 03:04:19;;;;;;;0.50;0.50;;;6.30;99.90;;;;;;5134913;27;20049;-77
2022/01/22 03:06:46;;;;;;;0.50;0.50;;;6.30;99.90;;;;;;5135078;27;20035;-77
2022/01/22 03:09:14;;;;;;;0.50;0.50;;;6.30;99.90;;;;;;5135466;28;20035;-77
2022/01/22 03:11:59;;;;;;;0.50;0.50;;;6.30;99.90;;;;;;5134818;28;20039;-78
2022/01/22 03:22:18;;;;;;;0.50;0.50;;;6.30;99.90;;;;;;5134872;28;20058;-77
2022/01/22 03:27:39;;;;;;;0.50;0.50;;;6.30;99.90;;;;;;5060956;28;20053;-78
2022/01/22 03:30:05;;;;;;;0.50;0.50;;;6.30;99.90;;;;;;5135004;28;20042;-77
2022/01/22 03:32:47;;;;;;;0.50;0.50;;;6.30;99.90;;;;;;5134453;28;20083;-77
2022/01/22 03:37:50;;;;;;;0.50;0.50;;;6.20;99.90;;;;;;5134740;28;20049;-77
2022/01/22 03:40:15;;;;;;;0.50;0.50;;;6.30;99.90;;;;;;5137702;27;20039;-77
2022/01/22 03:42:42;;;;;;;0.50;0.50;;;6.30;99.90;;;;;;5138825;27;20050;-77
2022/01/22 03:45:10;;;;;;;0.50;0.50;;;6.30;99.90;;;;;;5138422;27;20043;-77
2022/01/22 03:47:36;;;;;;;0.50;0.50;;;6.30;99.90;;;;;;5138475;27;20043;-78
2022/01/22 03:50:03;;;;;;;0.52;0.52;;;6.20;99.90;;;;;;5138627;27;20180;-77
2022/01/22 03:52:28;;;;;;;0.50;0.50;;;6.20;99.90;;;;;;5138259;27;20107;-78
2022/01/22 03:54:54;;;;;;;0.50;0.50;;;6.30;99.90;;;;;;5138805;27;20122;-78
2022/01/22 03:57:22;;;;;;;0.50;0.50;;;6.20;99.90;;;;;;5138142;27;20049;-78
2022/01/22 03:59:49;;;;;;;0.50;0.50;;;6.20;99.90;;;;;;5138347;27;20051;-78
2022/01/22 04:04:51;;;;;;;0.50;0.50;;;6.20;99.90;;;;;;5138225;27;19919;-79
2022/01/22 04:09:46;;;;;;;0.50;0.50;;;6.20;99.90;;;;;;5137974;27;20089;-79
2022/01/22 04:12:17;;;;;;;0.50;0.50;;;6.20;99.90;;;;;;5138275;27;20436;-79
2022/01/22 04:15:04;;;;;;;0.50;0.50;;;6.20;99.90;;;;;;5137955;27;20079;-79
2022/01/22 04:25:28;;;;;;;0.50;0.50;;;6.20;99.90;;;;;;5137911;27;20055;-79
2022/01/22 04:27:54;;;;;;;0.50;0.50;;;6.20;99.90;;;;;;5137571;27;20042;-79
2022/01/22 04:30:21;;;;;;;0.60;0.60;;;6.20;99.90;;;;;;5137640;27;20055;-79
2022/01/22 04:32:48;;;;;;;0.50;0.50;;;6.20;99.90;;;;;;5137553;27;20046;-79
2022/01/22 04:35:13;;;;;;;0.50;0.50;;;6.20;99.90;;;;;;5137555;27;20133;-79
2022/01/22 04:37:42;;;;;;;0.60;0.60;;;6.20;99.90;;;;;;5137372;27;20316;-79
2022/01/22 04:40:08;;;;;;;0.50;0.50;;;6.20;99.90;;;;;;5137401;27;20142;-79
2022/01/22 04:42:36;;;;;;;0.50;0.50;;;6.20;99.90;;;;;;5137429;27;20088;-79
2022/01/22 04:47:54;;;;;;;0.50;0.50;;;6.20;99.90;;;;;;5094947;27;20468;-79
2022/01/22 04:55:33;;;;;;;0.50;0.50;;;6.20;99.90;;;;;;5137356;27;20398;-79
2022/01/22 04:58:03;;;;;;;0.57;0.57;;;6.20;99.90;;;;;;5136815;27;20096;-79
2022/01/22 05:00:31;;;;;;;0.50;0.50;;;6.20;99.90;;;;;;5118964;27;20063;-79
2022/01/22 05:02:57;;;;;;;0.50;0.50;;;6.20;99.90;;;;;;5136938;27;20126;-79
2022/01/22 05:05:23;;;;;;;0.52;0.52;;;6.20;99.90;;;;;;5136904;27;20051;-79
2022/01/22 05:07:48;;;;;;;0.55;0.55;;;6.20;99.90;;;;;;5136874;27;20046;-79
2022/01/22 05:10:14;;;;;;;0.50;0.50;;;6.20;99.90;;;;;;5137364;27;20043;-79
2022/01/22 05:12:40;;;;;;;0.50;0.50;;;6.20;99.90;;;;;;5118705;27;20039;-79
2022/01/22 05:15:06;;;;;;;0.60;0.60;;;6.20;99.90;;;;;;5136601;27;20475;-79
2022/01/22 05:17:35;;;;;;;0.50;0.50;;;6.20;99.90;;;;;;5136579;27;20046;-79
2022/01/22 05:20:12;;;;;;;0.50;0.50;;;6.20;99.90;;;;;;5136605;27;20051;-79
2022/01/22 05:23:06;;;;;;;0.57;0.57;;;6.20;99.90;;;;;;5136660;27;20043;-79
2022/01/22 05:25:32;;;;;;;0.50;0.50;;;6.20;99.90;;;;;;5135689;27;20086;-79
2022/01/22 05:38:27;;;;;;;1.25;1.15;;;6.20;99.90;;;;;;5136104;27;20051;-79
2022/01/22 05:40:53;;;;;;;0.60;0.60;;;6.20;99.90;;;;;;5136245;27;20467;-79
2022/01/22 05:43:18;;;;;;;0.50;0.50;;;6.20;99.90;;;;;;5136134;27;20047;-79
2022/01/22 05:45:44;;;;;;;0.55;0.55;;;6.20;99.90;;;;;;5136149;27;20039;-79
2022/01/22 05:48:10;;;;;;;0.50;0.50;;;6.20;99.90;;;;;;5117788;27;20047;-79
2022/01/22 05:50:48;;;;;;;0.60;0.60;;;6.20;99.90;;;;;;5136190;27;20054;-79
2022/01/22 06:01:19;;;;;;;0.52;0.52;;;6.20;99.90;;;;;;5135520;27;20502;-79
2022/01/22 06:03:46;;;;;;;0.40;0.40;;;6.20;99.90;;;;;;5135763;27;20074;-79
2022/01/22 06:06:12;;;;;;;0.57;0.57;;;6.20;99.90;;;;;;5135828;27;20043;-79
2022/01/22 06:08:44;;;;;;;0.50;0.50;;;6.20;99.90;;;;;;5136384;27;20043;-78
2022/01/22 06:11:11;;;;;;;0.50;0.50;;;6.20;99.90;;;;;;5135843;27;20488;-79
2022/01/22 06:13:44;;;;;;;;;;;6.20;99.90;;;;;;5136104;27;20163;-78
2022/01/22 06:16:18;;;;;;;0.50;0.50;;;6.20;99.90;;;;;;5135703;27;19919;-79
2022/01/22 06:18:44;;;;;;;0.50;0.50;;;6.20;99.90;;;;;;5135676;27;20047;-78
2022/01/22 06:21:10;;;;;;;0.50;0.50;;;6.20;99.90;;;;;;5117153;27;20090;-79
2022/01/22 06:23:38;;;;;;;0.50;0.50;;;6.20;99.90;;;;;;5136050;27;20391;-76
2022/01/22 06:26:05;;;;;;;0.57;0.57;;;6.20;99.90;;;;;;5135493;27;20464;-77
2022/01/22 06:28:32;;;;;;;0.50;0.50;;;6.20;99.90;;;;;;5135425;27;20035;-78
2022/01/22 06:30:59;;;;;;;0.50;0.50;;;6.20;99.90;;;;;;5135362;27;20114;-77
2022/01/22 06:33:25;;;;;;;0.50;0.50;;;6.20;99.90;;;;;;5135408;27;20053;-77
2022/01/22 06:35:50;;;;;;;0.50;0.50;;;6.20;99.90;;;;;;5135439;27;20542;-78
2022/01/22 06:38:17;;;;;;;0.50;0.50;;;6.20;99.90;;;;;;5135318;27;20035;-78
2022/01/22 06:43:09;;;;;;;0.50;0.50;;;6.20;99.90;;;;;;5135263;27;20084;-78
2022/01/22 06:45:34;;;;;;;0.50;0.50;;;6.20;99.90;;;;;;5134976;27;20055;-78
2022/01/22 06:48:00;;;;;;;0.50;0.50;;;6.20;99.90;;;;;;5134783;27;20042;-78
2022/01/22 06:50:25;;;;;;;0.50;0.50;;;6.20;99.90;;;;;;5135632;27;20130;-77
2022/01/22 06:52:58;;;;;;;0.60;0.60;;;6.20;99.90;;;;;;5134995;27;20050;-78
2022/01/22 06:58:10;;;;;;;0.50;0.50;;;6.10;99.90;;;;;;5134955;27;20043;-79
2022/01/22 07:00:35;;;;;;;0.50;0.50;;;6.40;99.90;;;;;;5134973;27;20475;-78
2022/01/22 07:03:02;;;;;;;0.50;0.50;;;6.10;99.90;;;;;;5135048;27;20051;-78
2022/01/22 07:05:28;;;;;;;;;;;6.20;99.90;;;;;;5135308;27;20043;-79
2022/01/22 07:07:53;;;;;;;0.50;0.50;;;6.20;99.90;;;;;;5134793;27;19927;-78
2022/01/22 07:10:19;;;;;;;0.50;0.50;;;6.20;99.90;;;;;;5134750;28;20046;-78
2022/01/22 07:12:45;;;;;;;0.57;0.57;;;6.20;99.90;;;;;;5134778;28;20087;-79
2022/01/22 07:15:11;;;;;;;0.50;0.50;;;6.20;99.90;;;;;;5134020;27;20089;-78
2022/01/22 07:17:39;;;;;;;0.50;0.50;;;6.20;99.90;;;;;;5135169;28;20578;-78
2022/01/22 07:20:13;;;;;;;0.50;0.50;;;6.20;99.90;;;;;;5134588;28;20058;-78
2022/01/22 07:25:05;;;;;;;0.50;0.50;;;6.20;99.90;;;;;;5134296;28;20049;-79
2022/01/22 07:27:30;;;;;;;0.60;0.60;;;6.20;99.90;;;;;;5134568;28;20122;-77
2022/01/22 07:29:56;;;;;;;0.50;0.50;;;6.20;99.90;;;;;;5134667;28;20074;-78
2022/01/22 07:32:33;;;;;;;0.50;0.50;;;6.20;99.90;;;;;;5134645;28;20039;-77
2022/01/22 07:34:59;;;;;;;0.50;0.50;;;6.20;99.90;;;;;;5134458;28;20050;-77
2022/01/22 07:37:24;;;;;;;0.50;0.50;;;6.10;99.90;;;;;;5134689;28;20035;-76
2022/01/22 07:39:50;;;;;;;0.50;0.50;;;6.20;99.90;;;;;;5116353;28;20126;-77
2022/01/22 07:42:16;;;;;;;0.50;0.50;;;6.20;99.90;;;;;;5134426;28;20042;-77
2022/01/22 07:44:41;;;;;;;0.50;0.50;;;6.20;99.90;;;;;;5134378;28;20039;-79
2022/01/22 07:47:07;;;;;;;0.50;0.50;;;6.20;99.90;;;;;;5134360;28;20097;-77
2022/01/22 07:49:33;;;;;;;0.50;0.50;;;6.20;99.90;;;;;;5134361;28;20062;-77
2022/01/22 07:51:58;;;;;;;0.50;0.50;;;6.20;99.90;;;;;;5134401;28;20047;-82
2022/01/22 07:54:24;;;;;;;0.50;0.50;;;6.20;99.90;;;;;;5134169;28;20043;-81
2022/01/22 07:56:50;;;;;;;0.50;0.50;;;;;;;;;;5134314;28;20090;-81
2022/01/22 07:59:16;;;;;;;0.50;0.50;;;6.20;99.90;;;;;;5134264;28;20499;-80
2022/01/22 08:01:41;;;;;;;0.50;0.50;;;6.20;99.90;;;;;;5116230;28;20126;-81
2022/01/22 08:04:07;;;;;;;0.50;0.50;;;6.30;99.90;;;;;;5116248;28;20043;-79
2022/01/22 08:06:33;;;;;;;0.50;0.50;;;6.30;99.90;;;;;;5134557;28;20406;-82
2022/01/22 08:08:58;;;;;;;0.50;0.50;;;6.30;99.90;;;;;;5134142;28;20039;-81
2022/01/22 08:11:24;;;;;;;0.50;0.50;;;6.30;99.90;;;;;;5134042;28;20092;-84
2022/01/22 08:13:50;;;;;;;0.50;0.50;;;6.30;99.90;;;;;;5115805;28;20047;-80
2022/01/22 08:16:15;;;;;;;0.50;0.50;;;6.30;99.90;;;;;;5134291;28;20043;-80
2022/01/22 08:18:41;;;;;;;0.50;0.50;;;6.30;99.90;;;;;;5134043;28;20043;-82
2022/01/22 08:21:06;;;;;;;0.50;0.50;;;6.30;99.90;;;;;;5134129;28;20043;-83
2022/01/22 08:23:33;;;;;;;0.50;0.50;;;6.30;99.90;;;;;;5134097;28;20498;-81
2022/01/22 08:25:58;;;;;;;0.50;0.50;;;6.40;99.90;;;;;;5134542;27;20118;-79
2022/01/22 08:31:24;;;;;;;0.50;0.50;;;6.40;99.90;;;;;;5138106;27;20134;-83
2022/01/22 08:36:35;;;;;;;0.50;0.50;;;6.30;99.90;;;;;;5137491;27;20051;-81
2022/01/22 08:39:01;;;;;;;0.50;0.50;;;6.40;99.90;;;;;;5137372;27;20360;-82
2022/01/22 08:41:27;;;;;;;0.50;0.50;;;6.40;99.90;;;;;;5137258;27;20054;-79
2022/01/22 08:43:54;;;;;;;0.50;0.50;;;6.40;99.90;;;;;;5137787;27;20039;-82
2022/01/22 08:46:20;;;;;;;0.50;0.50;;;6.40;99.90;;;;;;5137502;27;20051;-82
2022/01/22 08:48:46;;;;;;;0.50;0.50;;;6.40;99.90;;;;;;5137459;27;20047;-82
2022/01/22 08:51:12;;;;;;;0.50;0.50;;;6.40;99.90;;;;;;5137412;27;20054;-79
2022/01/22 08:53:38;;;;;;;0.50;0.50;;;6.40;99.90;;;;;;5119121;27;20043;-76
2022/01/22 08:56:05;;;;;;;1.40;0.98;;;6.30;99.90;;;;;;5137931;27;20165;-78
2022/01/22 08:58:31;;;;;;;0.50;0.50;;;7.40;99.90;;;;;;5137120;27;20042;-80
2022/01/22 09:00:57;;;;;;;0.50;0.50;;;6.40;99.90;;;;;;5137312;27;20364;-79
2022/01/22 09:03:23;;;;;;;0.50;0.50;;;6.40;99.90;;;;;;5136764;27;20500;-78
2022/01/22 09:05:49;;;;;;;0.50;0.50;;;6.50;99.90;;;;;;5136739;27;20092;-79
2022/01/22 09:08:16;;;;;;;0.50;0.50;;;6.50;99.90;;;;;;5136498;27;20047;-78
2022/01/22 09:10:42;;;;;;;0.50;0.50;;;6.50;99.90;;;;;;5136567;27;20080;-79
2022/01/22 09:13:09;;;;;;;0.50;0.50;;;6.50;99.90;;;;;;5137235;27;20418;-78
2022/01/22 09:15:35;;;;;;;0.50;0.50;;;6.50;99.90;;;;;;5136901;27;20039;-79
2022/01/22 09:18:00;;;;;;;0.50;0.50;;;6.50;99.90;;;;;;5136726;27;20069;-78
2022/01/22 09:23:06;;;;;;;0.50;0.50;;;6.50;99.90;;;;;;5137046;27;20104;-78
2022/01/22 09:25:32;;;;;;;0.50;0.50;;;6.50;99.90;;;;;;5136822;27;20047;-79
2022/01/22 09:27:58;;;;;;;0.50;0.50;;;6.60;99.90;;;;;;5118372;27;20047;-80
2022/01/22 09:30:24;;;;;;;0.50;0.50;;;6.60;99.90;;;;;;5136769;27;20090;-78
2022/01/22 09:32:50;;;;;;;0.50;0.50;;;6.60;99.90;;;;;;5136582;27;20068;-78
2022/01/22 09:35:15;;;;;;;0.93;0.90;;;6.70;99.90;;;;;;5136398;27;20043;-79
2022/01/22 09:37:41;;;;;;;0.50;0.50;;;6.70;99.90;;;;;;5117918;27;20375;-79
2022/01/22 09:40:08;;;;;;;0.50;0.50;;;6.70;99.90;;;;;;5136417;27;20050;-79
2022/01/22 09:42:33;;;;;;;0.50;0.50;;;6.70;99.90;;;;;;5118261;27;20429;-79
2022/01/22 09:44:59;;;;;;;0.50;0.50;;;6.70;99.90;;;;;;5136412;27;20051;-78
2022/01/22 09:47:25;;;;;;;0.50;0.50;;;6.70;99.90;;;;;;5136363;27;20051;-78
2022/01/22 09:49:51;;;;;;;0.55;0.55;;;6.70;99.90;;;;;;5136166;27;20571;-80
2022/01/22 09:52:17;;;;;;;0.50;0.50;;;6.70;99.90;;;;;;5117955;27;20043;-79
2022/01/22 09:54:42;;;;;;;0.50;0.50;;;6.90;99.90;;;;;;5136297;27;20035;-79
2022/01/22 09:57:09;;;;;;;0.50;0.50;;;6.70;99.90;;;;;;5136226;27;20088;-79
2022/01/22 09:59:35;;;;;;;0.50;0.50;;;6.70;99.90;;;;;;5136144;27;20039;-79
2022/01/22 10:02:09;;;;;;;0.60;0.60;;;6.70;99.90;;;;;;5136317;27;20057;-79
2022/01/22 10:04:39;;;;;;;0.50;0.50;;;6.70;99.90;;;;;;5135808;27;20043;-80
2022/01/22 10:07:05;;;;;;;0.50;0.50;;;6.70;99.90;;;;;;5135811;27;20043;-79
2022/01/22 10:09:46;;;;;;;0.50;0.50;;;6.70;99.90;;;;;;5135741;27;20045;-79
2022/01/22 10:12:16;;;;;;;0.50;0.50;;;6.70;99.90;;;;;;5135926;27;20047;-78
2022/01/22 10:15:11;;;;;;;0.50;0.50;;;6.70;99.90;;;;;;5135670;27;20043;-78
2022/01/22 10:17:51;;;;;;;0.50;0.50;;;6.70;99.90;;;;;;5135541;27;20110;-80
2022/01/22 10:20:28;;;;;;;0.50;0.50;;;6.70;99.90;;;;;;5136001;27;20047;-78
2022/01/22 10:22:57;;;;;;;0.50;0.50;;;6.70;99.90;;;;;;5135646;27;20047;-79
2022/01/22 10:25:47;;;;;;;0.50;0.50;;;6.80;99.90;;;;;;5135380;27;20487;-78
2022/01/22 10:28:24;;;;;;;0.85;0.80;;;6.80;99.90;;;;;;5135723;27;20046;-79
2022/01/22 10:30:55;;;;;;;0.50;0.50;;;6.80;99.90;;;;;;5135802;27;20426;-79
2022/01/22 10:33:31;;;;;;;0.50;0.50;;;6.80;99.90;;;;;;5135627;27;20039;-79
2022/01/22 10:36:20;;;;;;;0.43;0.43;;;6.90;99.90;;;;;;5135533;27;20041;-78
2022/01/22 10:38:53;;;;;;;0.50;0.50;;;6.90;99.90;;;;;;5135745;27;20039;-80
2022/01/22 10:41:40;;;;;;;0.50;0.50;;;6.80;99.90;;;;;;5135527;27;20043;-79
2022/01/22 10:44:09;;;;;;;0.50;0.50;;;6.80;99.90;;;;;;5135481;27;20046;-80
2022/01/22 10:46:49;;;;;;;0.50;0.50;;;6.90;99.90;;;;;;5135476;27;20047;-79
2022/01/22 10:49:25;;;;;;;0.50;0.50;;;6.90;99.90;;;;;;5134310;27;20130;-80
2022/01/22 10:51:54;;;;;;;0.60;0.60;;;6.90;99.90;;;;;;5135204;27;20483;-79
2022/01/22 10:54:22;;;;;;;0.47;0.47;;;7.00;99.90;;;;;;5135423;27;20126;-79
2022/01/22 10:56:49;;;;;;;0.50;0.50;;;7.00;99.90;;;;;;5135359;27;20092;-79
2022/01/22 10:59:18;;;;;;;0.50;0.50;;;7.00;99.90;;;;;;5134645;27;20487;-78
2022/01/22 11:01:43;;;;;;;0.50;0.50;;;7.10;99.90;;;;;;5135007;27;20536;-80
2022/01/22 11:04:22;;;;;;;0.50;0.50;;;7.10;99.90;;;;;;5134908;27;20130;-79
2022/01/22 11:06:57;;;;;;;0.40;0.40;;;7.10;99.90;;;;;;5134746;27;20126;-80
2022/01/22 11:09:24;;;;;;;0.50;0.50;;;7.20;99.90;;;;;;5134670;27;20050;-80
2022/01/22 11:11:51;;;;;;;0.50;0.50;;;7.10;99.90;;;;;;5135155;27;20047;-80
2022/01/22 11:14:17;;;;;;;;;;;7.10;99.90;;;;;;5135105;28;20536;-78
2022/01/22 11:16:45;;;;;;;0.55;0.55;;;7.10;99.90;;;;;;5134630;28;19919;-79
2022/01/22 11:19:13;;;;;;;0.50;0.50;;;7.10;99.90;;;;;;5134711;28;20043;-79
2022/01/22 11:21:44;;;;;;;0.50;0.50;;;7.10;99.90;;;;;;5135028;28;20401;-78
2022/01/22 11:24:16;;;;;;;0.50;0.50;;;7.20;99.90;;;;;;5134907;28;20042;-80
2022/01/22 11:26:48;;;;;;;0.50;0.50;;;7.20;99.90;;;;;;5116761;28;20079;-78
2022/01/22 11:29:16;;;;;;;0.60;0.60;;;7.20;99.90;;;;;;5134923;28;20035;-79
2022/01/22 11:31:45;;;;;;;0.50;0.50;;;7.30;99.90;;;;;;5134843;28;20501;-80
2022/01/22 11:34:15;;;;;;;0.40;0.40;;;7.30;99.90;;;;;;5134771;28;20043;-79
2022/01/22 11:37:11;;;;;;;0.50;0.50;;;7.30;99.90;;;;;;5134653;28;20106;-80
2022/01/22 11:39:36;;;;;;;0.75;0.75;;;7.30;99.90;;;;;;5130474;28;20483;-79
2022/01/22 11:42:04;;;;;;;0.50;0.50;;;7.30;99.90;;;;;;5134685;28;20039;-79
2022/01/22 11:44:47;;;;;;;0.60;0.60;;;7.20;99.90;;;;;;5134589;28;20079;-79
2022/01/22 11:47:22;;;;;;;0.50;0.50;;;7.20;99.90;;;;;;5134690;28;20043;-78
2022/01/22 11:50:07;;;;;;;0.50;0.50;;;7.20;99.90;;;;;;5134177;27;20055;-78
2022/01/22 11:52:37;;;;;;;0.45;0.45;;;7.10;99.90;;;;;;5134453;28;20035;-80
2022/01/22 11:55:14;;;;;;;0.50;0.50;;;7.20;99.90;;;;;;5134414;28;20051;-78
2022/01/22 11:57:41;;;;;;;0.50;0.50;;;7.20;99.90;;;;;;5134409;28;20118;-78
2022/01/22 12:00:22;;;;;;;0.50;0.50;;;7.20;99.90;;;;;;5135083;27;20043;-79
2022/01/22 12:03:09;;;;;;;0.93;0.93;;;7.20;99.90;;;;;;5139801;27;20545;-77
2022/01/22 12:05:54;;;;;;;0.50;0.50;;;7.20;99.90;;;;;;5138305;27;20125;-80
2022/01/22 12:08:24;;;;;;;0.50;0.50;;;7.20;99.90;;;;;;5138424;27;20458;-81
2022/01/22 12:16:41;;;;;;;0.50;0.50;;;7.20;99.90;;;;;;5138358;27;20080;-81
2022/01/22 12:22:30;;;;;;;0.50;0.50;;;7.10;99.90;;;;;;5138346;27;20046;-81
2022/01/22 12:24:57;;;;;;;0.50;0.50;;;7.10;99.90;;;;;;5138314;27;20130;-81
2022/01/22 12:27:49;;;;;;;0.50;0.50;;;7.10;99.90;;;;;;5138386;27;20129;-82
2022/01/22 12:30:17;;;;;;;0.50;0.50;;;7.10;99.90;;;;;;5138404;27;20099;-81
2022/01/22 12:32:48;;;;;;;0.50;0.50;;;7.20;99.90;;;;;;5138265;27;20060;-81
2022/01/22 12:35:19;;;;;;;0.50;0.50;;;7.20;99.90;;;;;;5137743;27;20062;-81
2022/01/22 12:37:51;;;;;;;0.50;0.50;;;7.20;99.90;;;;;;5137948;27;20070;-81
2022/01/22 12:40:44;;;;;;;0.50;0.50;;;7.20;99.90;;;;;;5137654;27;20079;-81
2022/01/22 12:43:13;;;;;;;0.60;0.60;;;7.20;99.90;;;;;;5134060;27;20376;-82
2022/01/22 12:45:44;;;;;;;0.50;0.50;;;7.20;99.90;;;;;;5137343;27;20042;-82
2022/01/22 12:48:12;;;;;;;0.60;0.60;;;7.20;99.90;;;;;;5137201;27;20055;-82
2022/01/22 12:50:42;;;;;;;0.50;0.50;;;7.10;99.90;;;;;;5137761;27;20513;-82
2022/01/22 12:53:10;;;;;;;0.75;0.60;;;7.10;99.90;;;;;;5119326;27;20129;-81
2022/01/22 12:56:47;;;;;;;0.50;0.50;;;7.10;99.90;;;;;;5137487;27;20043;-81
2022/01/22 12:58:39;;;;;;;0.50;0.50;;;7.10;99.90;;;;;;5125730;27;20129;-81
2022/01/22 13:01:11;;;;;;;0.50;0.50;;;7.10;99.90;;;;;;5137923;27;20047;-81
2022/01/22 13:03:39;;;;;;;0.50;0.50;;;7.10;99.90;;;;;;5137738;27;20043;-81
2022/01/22 13:06:05;;;;;;;0.50;0.50;;;7.10;99.90;;;;;;5137046;27;20478;-82
2022/01/22 13:08:32;;;;;;;0.50;0.50;;;7.10;99.90;;;;;;5136971;27;20046;-82
2022/01/22 13:11:01;;;;;;;0.50;0.50;;;7.10;99.90;;;;;;5136597;27;20043;-82
2022/01/22 13:13:28;;;;;;;0.50;0.50;;;7.10;99.90;;;;;;5136048;27;20047;-82
2022/01/22 13:16:02;;;;;;;0.60;0.60;;;7.10;99.90;;;;;;5136871;27;20039;-82
2022/01/22 13:18:48;;;;;;;0.50;0.50;;;7.10;99.90;;;;;;5136627;27;20122;-82
2022/01/22 13:21:16;;;;;;;0.50;0.50;;;7.10;99.90;;;;;;5136856;27;20050;-82
2022/01/22 13:23:42;;;;;;;0.80;0.80;;;7.50;99.90;;;;;;5136957;27;20509;-82
2022/01/22 13:26:08;;;;;;;0.50;0.50;;;7.00;99.90;;;;;;5137210;27;20035;-82
2022/01/22 13:28:36;;;;;;;0.50;0.50;;;7.10;99.90;;;;;;5136666;27;20625;-82
2022/01/22 13:31:14;;;;;;;0.60;0.60;;;7.00;99.90;;;;;;5136830;27;20043;-81
2022/01/22 13:33:51;;;;;;;0.50;0.50;;;6.90;99.90;;;;;;5118719;27;20057;-81
2022/01/22 13:36:25;;;;;;;0.50;0.50;;;6.90;99.90;;;;;;5137056;27;20051;-82
2022/01/22 13:39:10;;;;;;;0.50;0.50;;;6.90;99.90;;;;;;5136336;27;20475;-82
2022/01/22 13:45:06;;;;;;;0.50;0.50;;;6.90;99.90;;;;;;5117989;27;20054;-82
2022/01/22 13:49:59;;;;;;;0.50;0.50;;;6.90;99.90;;;;;;5136493;27;20058;-82
2022/01/22 13:52:28;;;;;;;2.75;1.60;;;7.00;99.90;;;;;;5135979;27;20047;-82
2022/01/22 13:54:58;;;;;;;0.50;0.50;;;6.90;99.90;;;;;;5136041;27;20035;-82
2022/01/22 13:57:28;;;;;;;0.50;0.50;;;6.90;99.90;;;;;;5135898;27;20049;-82
2022/01/22 13:59:56;;;;;;;0.50;0.50;;;6.90;99.90;;;;;;5136202;27;20035;-82
2022/01/22 14:02:48;;;;;;;0.50;0.50;;;6.90;99.90;;;;;;5136041;27;20043;-81
2022/01/22 14:05:14;;;;;;;0.50;0.50;;;6.90;99.90;;;;;;5136130;27;20051;-81
2022/01/22 14:07:47;;;;;;;0.50;0.50;;;7.00;99.90;;;;;;5117991;27;20105;-82
2022/01/22 14:10:20;;;;;;;0.50;0.50;;;7.00;99.90;;;;;;5136033;27;20065;-82
2022/01/22 14:12:48;;;;;;;0.50;0.50;;;7.00;99.90;;;;;;5135806;27;20083;-81
2022/01/22 14:15:26;;;;;;;0.60;0.60;;;7.00;99.90;;;;;;5135611;27;20051;-81
2022/01/22 14:18:34;;;;;;;0.60;0.60;;;7.00;99.90;;;;;;5135930;27;20398;-81
2022/01/22 14:21:07;;;;;;;0.50;0.50;;;6.90;99.90;;;;;;5131483;27;20051;-82
2022/01/22 14:23:35;;;;;;;1.45;1.35;;;6.90;99.90;;;;;;5117440;27;20375;-82
2022/01/22 14:26:04;;;;;;;0.50;0.50;;;6.90;99.90;;;;;;5135466;27;20086;-82
2022/01/22 14:28:44;;;;;;;0.50;0.50;;;6.80;99.90;;;;;;5135245;27;20043;-82
2022/01/22 14:31:29;;;;;;;0.50;0.50;;;6.90;99.90;;;;;;5117552;28;20436;-82
2022/01/22 14:34:00;;;;;;;0.50;0.50;;;6.90;99.90;;;;;;5135789;27;20132;-81
2022/01/22 14:36:37;;;;;;;0.55;0.50;;;6.80;99.90;;;;;;5135864;27;20039;-81
2022/01/22 14:44:49;;;;;;;0.40;0.40;;;6.80;99.90;;;;;;5141206;27;20047;-81
2022/01/22 14:47:22;;;;;;;5.03;1.67;;;6.80;99.90;;;;;;5139174;27;20047;-82
2022/01/22 14:49:52;;;;;;;0.50;0.50;;;6.80;99.90;;;;;;5135746;27;20047;-81
2022/01/22 14:52:23;;;;;;;0.40;0.40;;;6.80;99.90;;;;;;5135104;27;20054;-81
2022/01/22 14:54:50;;;;;;;0.50;0.50;;;6.80;99.90;;;;;;5135016;27;20080;-81
2022/01/22 14:57:23;;;;;;;0.50;0.50;;;6.70;99.90;;;;;;5134995;27;20116;-81
2022/01/22 14:59:49;;;;;;;0.50;0.50;;;6.80;99.90;;;;;;5134825;27;20039;-81
2022/01/22 15:02:15;;;;;;;0.50;0.50;;;6.70;99.90;;;;;;5134898;27;20096;-81
2022/01/22 15:04:42;;;;;;;0.80;0.80;;;6.70;99.90;;;;;;5134896;27;20292;-81
2022/01/22 15:07:14;;;;;;;0.50;0.50;;;6.70;99.90;;;;;;5134979;27;20100;-81
2022/01/22 15:09:41;;;;;;;0.50;0.50;;;6.70;99.90;;;;;;5136113;27;20472;-81